Noordam — PHET — position and weather

sailwx.info

Track history (hours):
 
Tides and Currents Weather Stations Pressure Air Temp Water Temp Dewpoint Dewpoint Depression Visibility Wind Speed Wind Dir Waves Ship Positions

Noordam (Netherlands)

Ship's website: http://www.hollandamerica.com/cruiseships/Noordam

Last reported at 2019-Sep-21 11:30 UTC. Time now 2019-Sep-21 11:39 UTC.
Position N 53°28' W 130°49'.

Type: Passenger vessel. MMSI: 246028000.

Date/timePositionNaut miles runAvg speedWind from/ knotsBaromVisibWave heightAir tempDewpointWater temp
2019-Sep-21 11:30N 53°28' W 130°49'917.7
2019-Sep-21 11:00N 53°37' W 130°53'3177.5
2019-Sep-21 11:00N 53°36' W 130°48'1021.3 170 / 481008.5 5.4 14.0
2019-Sep-21 10:30N 53°45' W 130°56'917.6
2019-Sep-21 10:00N 53°54' W 131°00'917.6
2019-Sep-21 09:30N 54°02' W 131°02'917.5
2019-Sep-21 09:00N 54°11' W 131°03'5337.7
2019-Sep-21 09:00N 54°06' W 131°00'1326.1 160 / 521008.5 5.4 14.0
2019-Sep-21 08:30N 54°19' W 131°03'4 8.2
2019-Sep-21 08:00N 54°23' W 131°01'815.2
2019-Sep-21 07:30N 54°29' W 131°10'815.1
2019-Sep-21 07:00N 54°35' W 131°15'6522.6
2019-Sep-21 07:00N 54°30' W 131°12'1327.2 160 / 511008.5 1.1 13.8 12.8
2019-Sep-21 06:30N 54°43' W 131°13'917.2
2019-Sep-21 06:00N 54°51' W 131°08'4229.7
2019-Sep-21 06:00N 54°48' W 131°06'1821.4 150 / 421009.5 13.7 12.6
2019-Sep-21 05:08N 55°06' W 131°09'217.2
2019-Sep-21 05:00N 55°08' W 131°10'1211.9
2019-Sep-21 04:00N 55°12' W 131°30'7 2.3 140 / 371010.5 0.5 14.2 13.3
2019-Sep-21 01:00N 55°18' W 131°36'93 8.4 150 / 211010.0 5.4 13.6
2019-Sep-20 14:00N 56°18' W 133°42'2713.5 010 / 31010.5 2.2 11.0 10.0
2019-Sep-20 12:00N 56°00' W 134°18'1818.3 130 / 321014.5 5.4 12.0
2019-Sep-20 11:00N 56°18' W 134°24'1818.3 150 / 221014.5 5.4 12.0
2019-Sep-20 10:00N 56°36' W 134°30'1818.3 130 / 321014.5 5.4 11.0
2019-Sep-20 09:00N 56°54' W 134°36'3618.1 170 / 281014.5 5.4 11.0
2019-Sep-20 07:00N 57°30' W 134°42'1818.3 170 / 101014.5 1.1 11.0 10.1
2019-Sep-20 06:00N 57°48' W 134°48'1413.6 180 / 201016.5 1.1 11.5 11.2
2019-Sep-20 05:00N 58°00' W 135°00'1723.8 120 / 91015.5 1.1 11.6 10.6
2019-Sep-20 04:17N 58°11' W 135°23'518.3
2019-Sep-20 04:00N 58°14' W 135°32'917.6
2019-Sep-20 03:31N 58°18' W 135°47'714.9
2019-Sep-20 03:00N 58°23' W 135°58'713.3
2019-Sep-20 02:31N 58°29' W 136°03'918.7
2019-Sep-20 02:00N 58°38' W 136°07'815.5
2019-Sep-20 01:30N 58°44' W 136°16'713.1
2019-Sep-20 01:00N 58°48' W 136°26'917.0
2019-Sep-20 00:30N 58°53' W 136°41'3 0.6
2019-Sep-19 19:24N 58°52' W 136°35'716.4
2019-Sep-19 19:00N 58°48' W 136°24'512.8 190 / 51010.510.8 11.0
2019-Sep-19 18:36N 58°45' W 136°17'213.7
2019-Sep-19 18:29N 58°43' W 136°15'816.1
2019-Sep-19 18:00N 58°37' W 136°06'917.5
2019-Sep-19 17:30N 58°29' W 136°03'612.8
2019-Sep-19 17:00N 58°23' W 135°57'815.9
2019-Sep-19 16:30N 58°18' W 135°45'1019.4
2019-Sep-19 16:00N 58°14' W 135°28'70 7.8
2019-Sep-19 07:00N 59°24' W 135°18'55 2.5 210 / 281005.5 0.5 13.2 10.6
2019-Sep-18 09:00N 58°30' W 134°54'2412.0 130 / 121012.510.8 12.0
2019-Sep-18 07:00N 58°12' W 134°24'6 2.0 090 / 61014.5 0.3 10.3 10.0
2019-Sep-18 04:00N 58°18' W 134°24'6 6.0 090 / 21012.5 2.2 12.2 10.9
2019-Sep-18 03:00N 58°12' W 134°24'6 6.0 360 / 21009.1
2019-Sep-18 02:00N 58°18' W 134°24'0 0.0 070 / 21008.310.8 16.0
2019-Sep-18 01:00N 58°18' W 134°24'0 0.0 170 / 41008.010.8 17.6
2019-Sep-18 00:00N 58°18' W 134°24'16211.6 080 / 21007.310.8 17.7
2019-Sep-17 10:00N 55°36' W 134°18'1919.2 070 / 34997.510.8 13.0
2019-Sep-17 09:00N 55°18' W 134°06'1615.8 090 / 28996.510.8 13.0
2019-Sep-17 08:00N 55°06' W 133°48'3316.5 110 / 18995.510.8 12.0
2019-Sep-17 06:00N 54°48' W 133°00'3919.7 100 / 31997.5 0.5 12.1 12.7
2019-Sep-17 04:00N 54°24' W 132°06'1819.4 120 / 32998.5 0.5 12.5 12.4
2019-Sep-17 03:03N 54°23' W 131°35'472.6
2019-Sep-17 03:00N 54°24' W 131°42'1429.4 120 / 28999.5 0.5 12.6 12.0
2019-Sep-17 02:31N 54°21' W 131°19'017.1
2019-Sep-17 02:30N 54°20' W 131°18'918.5
2019-Sep-17 02:00N 54°18' W 131°04'918.4
2019-Sep-17 01:30N 54°09' W 131°02'918.5
2019-Sep-17 01:00N 53°59' W 131°02'5331.3
2019-Sep-17 01:00N 53°54' W 131°00'4 8.0 140 / 35998.7 5.4 12.9
2019-Sep-17 00:30N 53°50' W 130°58'918.1
2019-Sep-17 00:00N 53°42' W 130°54'6375.4
2019-Sep-17 00:00N 53°36' W 130°54'4 8.3 130 / 34999.1 5.4 12.8
2019-Sep-16 23:31N 53°33' W 130°50'1020.0
2019-Sep-16 23:00N 53°23' W 130°44'1321.2
2019-Sep-16 22:23N 53°11' W 130°35'6921.3
2019-Sep-16 19:09N 52°08' W 129°48'321.4
2019-Sep-16 19:00N 52°06' W 129°46'1020.9
2019-Sep-16 18:30N 51°56' W 129°39'1121.6
2019-Sep-16 18:00N 51°47' W 129°31'5292.3
2019-Sep-16 18:00N 51°42' W 129°30'714.5 160 / 171009.510.8 14.0
2019-Sep-16 17:31N 51°39' W 129°20'1121.6
2019-Sep-16 17:00N 51°33' W 129°05'1121.4
2019-Sep-16 16:30N 51°27' W 128°52'1020.8
2019-Sep-16 16:01N 51°21' W 128°38'1121.0
2019-Sep-16 15:30N 51°15' W 128°24'1121.4
2019-Sep-16 15:01N 51°09' W 128°10'4223.0
2019-Sep-16 15:00N 51°06' W 128°06'714.7 120 / 141008.810.8 10.6
2019-Sep-16 14:30N 51°03' W 127°56'815.9
2019-Sep-16 14:00N 50°58' W 127°46'1020.3
2019-Sep-16 13:30N 50°52' W 127°33'1821.8
2019-Sep-16 12:40N 50°44' W 127°07'421.6
2019-Sep-16 12:30N 50°43' W 127°01'2718.0
2019-Sep-16 11:00N 50°30' W 126°24'3817.5 260 / 51009.5 2.2 9.0
2019-Sep-16 08:51N 50°20' W 125°27'515.4
2019-Sep-16 08:30N 50°15' W 125°23'816.5
2019-Sep-16 08:00N 50°08' W 125°21'713.2
2019-Sep-16 07:30N 50°03' W 125°14'814.9
2019-Sep-16 07:00N 49°56' W 125°08'815.1
2019-Sep-16 06:30N 49°51' W 124°59'714.6
2019-Sep-16 06:00N 49°46' W 124°51'5325.5
2019-Sep-16 06:00N 49°42' W 124°48'3 6.9 300 / 151010.5 1.1 12.5 14.1
2019-Sep-16 05:30N 49°41' W 124°43'714.7
2019-Sep-16 05:00N 49°35' W 124°36'139.9
2019-Sep-16 05:00N 49°36' W 124°36'816.2 290 / 121010.5 1.1 12.8 13.5
2019-Sep-16 04:30N 49°29' W 124°29'814.9
2019-Sep-16 04:00N 49°25' W 124°19'2188.0
2019-Sep-16 04:00N 49°24' W 124°18'613.0 110 / 121009.5 1.1 13.9 14.7
2019-Sep-16 03:30N 49°23' W 124°08'815.5
2019-Sep-16 03:00N 49°22' W 123°57'5381.6
2019-Sep-16 03:00N 49°18' W 123°54'714.0 100 / 141009.5 1.1 14.0 12.9
2019-Sep-16 02:30N 49°21' W 123°45'816.2
2019-Sep-16 02:00N 49°20' W 123°32'815.7
2019-Sep-16 01:30N 49°19' W 123°20'714.9
2019-Sep-16 01:00N 49°19' W 123°09'2 4.4
2019-Sep-16 00:30N 49°17' W 123°07'0 0.0
2019-Sep-15 23:57N 49°17' W 123°07'0 0.0
2019-Sep-15 23:30N 49°17' W 123°07'0 0.0
2019-Sep-15 23:00N 49°17' W 123°07'0 0.0
2019-Sep-15 22:30N 49°17' W 123°07'0 0.0
2019-Sep-15 22:00N 49°17' W 123°07'0 0.0
2019-Sep-15 21:30N 49°17' W 123°07'0 0.0
2019-Sep-15 21:00N 49°17' W 123°07'0 0.0
2019-Sep-15 20:30N 49°17' W 123°07'0 0.0
2019-Sep-15 20:00N 49°17' W 123°07'0 0.0
2019-Sep-15 19:30N 49°17' W 123°07'0 0.0
2019-Sep-15 19:00N 49°17' W 123°07'5970.8
2019-Sep-15 19:00N 49°12' W 123°06'5 9.9 110 / 41006.310.8 15.0
2019-Sep-15 18:27N 49°17' W 123°07'0 0.0
2019-Sep-15 18:00N 49°17' W 123°07'51021.9
2019-Sep-15 18:00N 49°12' W 123°06'510.9 110 / 51006.310.8 15.0
2019-Sep-15 17:30N 49°17' W 123°07'0 0.0
2019-Sep-15 17:00N 49°17' W 123°07'0 0.0
2019-Sep-15 16:30N 49°17' W 123°07'0 0.0
2019-Sep-15 16:00N 49°17' W 123°07'0 0.0
2019-Sep-15 15:30N 49°17' W 123°07'0 0.0
2019-Sep-15 15:00N 49°17' W 123°07'0 0.0
2019-Sep-15 14:30N 49°17' W 123°07'0 0.1
2019-Sep-15 14:00N 49°17' W 123°07'1 2.5
2019-Sep-15 13:30N 49°19' W 123°08'713.4
2019-Sep-15 13:00N 49°18' W 123°18'1020.8
2019-Sep-15 12:30N 49°18' W 123°34'1020.7
2019-Sep-15 12:00N 49°20' W 123°49'1020.8
2019-Sep-15 11:30N 49°22' W 124°05'1020.8
2019-Sep-15 11:00N 49°26' W 124°20'2135.6
2019-Sep-15 11:00N 49°24' W 124°18'1225.1 100 / 151005.3 2.2 13.0
2019-Sep-15 10:31N 49°32' W 124°32'1020.8
2019-Sep-15 10:00N 49°40' W 124°43'4224.7
2019-Sep-15 10:00N 49°36' W 124°42'1428.8 170 / 171005.310.8 13.0
2019-Sep-15 09:30N 49°48' W 124°54'1121.1
2019-Sep-15 09:00N 49°55' W 125°06'170.9
2019-Sep-15 09:00N 49°54' W 125°06'1021.1 180 / 61005.310.8 12.0
2019-Sep-15 08:30N 50°03' W 125°14'714.4
2019-Sep-15 08:00N 50°08' W 125°21'3212.3
2019-Sep-15 08:00N 50°06' W 125°18'917.8 190 / 71007.3 5.4 13.0 11.0
2019-Sep-15 07:30N 50°14' W 125°23'510.1
2019-Sep-15 07:00N 50°19' W 125°25'1110.8
2019-Sep-15 06:00N 50°18' W 125°42'535.5 040 / 31004.910.8 12.6
2019-Sep-15 05:51N 50°22' W 125°47'2010.8
2019-Sep-15 04:00N 50°24' W 126°18'3612.1 140 / 51005.110.8 13.0
2019-Sep-15 01:00N 50°36' W 127°12'1429.7 080 / 111005.1 5.4 13.3
2019-Sep-15 00:31N 50°48' W 127°24'517.6
2019-Sep-15 00:15N 50°51' W 127°30'417.9
2019-Sep-15 00:00N 50°53' W 127°36'917.7
2019-Sep-14 23:30N 50°59' W 127°47'917.4
2019-Sep-14 23:00N 51°07' W 127°51'816.6
2019-Sep-14 22:30N 51°15' W 127°53'816.9
2019-Sep-14 22:00N 51°24' W 127°51'2143.2
2019-Sep-14 22:00N 51°24' W 127°48'918.7 190 / 171006.3 2.2 14.3 13.0
2019-Sep-14 21:30N 51°33' W 127°52'918.0
2019-Sep-14 21:00N 51°41' W 127°56'188.0
2019-Sep-14 21:00N 51°42' W 127°54'817.2 180 / 121007.3 1.1 13.0 15.0
2019-Sep-14 20:31N 51°50' W 127°57'917.4
2019-Sep-14 20:00N 51°59' W 127°56'5359.5
2019-Sep-14 20:00N 51°54' W 127°54'1327.6 200 / 161006.010.8 14.4 13.5
2019-Sep-14 19:30N 52°07' W 127°53'5 9.1
2019-Sep-14 19:00N 52°12' W 127°54'730.6 170 / 101008.310.8 15.0
2019-Sep-14 18:47N 52°18' W 127°57'415.9
2019-Sep-14 18:30N 52°18' W 128°04'816.0
2019-Sep-14 18:00N 52°15' W 128°16'918.0
2019-Sep-14 17:30N 52°16' W 128°30'917.7
2019-Sep-14 17:00N 52°14' W 128°45'2158.1
2019-Sep-14 17:00N 52°12' W 128°42'1021.1 170 / 251006.310.8 14.0
2019-Sep-14 16:30N 52°15' W 128°58'917.0
2019-Sep-14 16:00N 52°17' W 129°11'917.2
2019-Sep-14 15:30N 52°19' W 129°25'815.9
2019-Sep-14 15:00N 52°24' W 129°36'521.6 210 / 211005.610.8 13.9
2019-Sep-14 14:45N 52°26' W 129°44'1215.7
2019-Sep-14 14:00N 52°36' W 129°54'1616.2 220 / 181005.410.8 13.7
2019-Sep-14 13:00N 52°48' W 130°12'3221.4 260 / 81005.410.8 13.2
2019-Sep-14 11:30N 53°16' W 130°38'816.7
2019-Sep-14 11:00N 53°24' W 130°42'333.3 220 / 121006.310.8 13.0
2019-Sep-14 10:54N 53°26' W 130°46'718.0
2019-Sep-14 10:30N 53°33' W 130°50'918.4
2019-Sep-14 10:00N 53°42' W 130°54'029.5
2019-Sep-14 10:00N 53°42' W 130°54'817.4 270 / 101005.310.8 13.0
2019-Sep-14 09:31N 53°50' W 130°58'917.5
2019-Sep-14 09:01N 53°58' W 131°03'5274.8
2019-Sep-14 09:00N 53°54' W 131°00'1327.6 260 / 151004.310.8 13.0
2019-Sep-14 08:30N 54°07' W 131°02'917.9
2019-Sep-14 08:00N 54°16' W 131°00'510.7
2019-Sep-14 07:30N 54°21' W 130°60'918.9
2019-Sep-14 07:00N 54°29' W 131°10'1116.9
2019-Sep-14 06:22N 54°39' W 131°15'615.7
2019-Sep-14 06:00N 54°42' W 131°06'5161.9 250 / 161003.410.8 12.6
2019-Sep-14 05:58N 54°46' W 131°11'817.0
2019-Sep-14 05:30N 54°53' W 131°07'713.1
2019-Sep-14 05:00N 55°00' W 131°06'537.9 220 / 51003.310.8 13.2
2019-Sep-14 04:51N 55°05' W 131°08'21 4.2
2019-Sep-14 00:00N 55°18' W 131°36'0 0.0 170 / 31004.6 2.2 13.2
2019-Sep-13 19:00N 55°18' W 131°36'5611.2 150 / 101006.0 5.4 13.0
2019-Sep-13 14:00N 56°00' W 132°42'3014.8 140 / 301004.310.8 13.0 13.0
2019-Sep-13 12:00N 56°18' W 133°24'3618.0 120 / 151006.3 5.4 12.0 11.0
2019-Sep-13 10:00N 55°54' W 134°12'1818.3 170 / 171007.3 5.4 13.0 11.0
2019-Sep-13 09:00N 56°12' W 134°18'4221.1 160 / 311006.3 5.4 12.0
2019-Sep-13 07:00N 56°54' W 134°24'2222.2 270 / 71004.2 5.4 12.7
2019-Sep-13 06:00N 57°12' W 134°00'3718.3 130 / 261005.610.8 11.9
2019-Sep-13 04:00N 57°48' W 133°48'36 4.4 150 / 141006.710.8 11.8
2019-Sep-12 20:00N 58°18' W 134°24'0 0.0 140 / 91009.3 5.4 11.0
2019-Sep-12 19:00N 58°18' W 134°24'0 0.0 150 / 91009.3 5.4 11.0
2019-Sep-12 18:00N 58°18' W 134°24'0 0.0 140 / 101010.3 5.4 11.0
2019-Sep-12 15:00N 58°18' W 134°24'6 2.0 1009.310.8 11.1
2019-Sep-12 12:00N 58°12' W 134°24'1111.2 110 / 121012.310.8 12.0
2019-Sep-12 11:00N 58°18' W 134°42'9 8.7 160 / 51012.310.8 12.0
2019-Sep-12 10:00N 58°24' W 134°54'7 6.8 020 / 141012.310.8 11.0
2019-Sep-12 09:00N 58°30' W 135°00'2512.4 300 / 111012.310.8 11.0
2019-Sep-12 07:00N 58°54' W 135°12'6 6.0 020 / 21011.010.8 11.0
2019-Sep-12 06:00N 59°00' W 135°12'13 4.5 060 / 71011.310.8 10.7
2019-Sep-12 03:00N 59°12' W 135°24'0 0.0 260 / 61012.310.8 12.4
2019-Sep-12 01:00N 59°12' W 135°24'0 0.0 080 / 31012.8 5.4 13.9
2019-Sep-11 23:00N 59°12' W 135°24'0 0.0 070 / 71013.510.8 13.5
2019-Sep-11 20:00N 59°12' W 135°24'0 0.0 260 / 31015.310.8 11.0
2019-Sep-11 15:00N 59°12' W 135°24'19 6.3 320 / 21013.810.8 8.2
2019-Sep-11 12:00N 58°54' W 135°12'   360 / 111013.310.8 10.0
Track history (hours):
 
Tides and Currents Weather Stations Pressure Air Temp Water Temp Dewpoint Dewpoint Depression Visibility Wind Speed Wind Dir Waves Ship Positions

Noordam (Netherlands)

Ship's website: http://www.hollandamerica.com/cruiseships/Noordam

Last reported at 2019-Sep-21 11:30 UTC. Time now 2019-Sep-21 11:39 UTC.
Position N 53°28' W 130°49'.

Type: Passenger vessel. MMSI: 246028000.

Date/timePositionNaut miles runAvg speedWind from/ knotsBaromVisibWave heightAir tempDewpointWater temp
2019-Sep-21 11:30N 53°28' W 130°49'917.7
2019-Sep-21 11:00N 53°37' W 130°53'3177.5
2019-Sep-21 11:00N 53°36' W 130°48'1021.3 170 / 481008.5 5.4 14.0
2019-Sep-21 10:30N 53°45' W 130°56'917.6
2019-Sep-21 10:00N 53°54' W 131°00'917.6
2019-Sep-21 09:30N 54°02' W 131°02'917.5
2019-Sep-21 09:00N 54°11' W 131°03'5337.7
2019-Sep-21 09:00N 54°06' W 131°00'1326.1 160 / 521008.5 5.4 14.0
2019-Sep-21 08:30N 54°19' W 131°03'4 8.2
2019-Sep-21 08:00N 54°23' W 131°01'815.2
2019-Sep-21 07:30N 54°29' W 131°10'815.1
2019-Sep-21 07:00N 54°35' W 131°15'6522.6
2019-Sep-21 07:00N 54°30' W 131°12'1327.2 160 / 511008.5 1.1 13.8 12.8
2019-Sep-21 06:30N 54°43' W 131°13'917.2
2019-Sep-21 06:00N 54°51' W 131°08'4229.7
2019-Sep-21 06:00N 54°48' W 131°06'1821.4 150 / 421009.5 13.7 12.6
2019-Sep-21 05:08N 55°06' W 131°09'217.2
2019-Sep-21 05:00N 55°08' W 131°10'1211.9
2019-Sep-21 04:00N 55°12' W 131°30'7 2.3 140 / 371010.5 0.5 14.2 13.3
2019-Sep-21 01:00N 55°18' W 131°36'93 8.4 150 / 211010.0 5.4 13.6
2019-Sep-20 14:00N 56°18' W 133°42'2713.5 010 / 31010.5 2.2 11.0 10.0
2019-Sep-20 12:00N 56°00' W 134°18'1818.3 130 / 321014.5 5.4 12.0
2019-Sep-20 11:00N 56°18' W 134°24'1818.3 150 / 221014.5 5.4 12.0
2019-Sep-20 10:00N 56°36' W 134°30'1818.3 130 / 321014.5 5.4 11.0
2019-Sep-20 09:00N 56°54' W 134°36'3618.1 170 / 281014.5 5.4 11.0
2019-Sep-20 07:00N 57°30' W 134°42'1818.3 170 / 101014.5 1.1 11.0 10.1
2019-Sep-20 06:00N 57°48' W 134°48'1413.6 180 / 201016.5 1.1 11.5 11.2
2019-Sep-20 05:00N 58°00' W 135°00'1723.8 120 / 91015.5 1.1 11.6 10.6
2019-Sep-20 04:17N 58°11' W 135°23'518.3
2019-Sep-20 04:00N 58°14' W 135°32'917.6
2019-Sep-20 03:31N 58°18' W 135°47'714.9
2019-Sep-20 03:00N 58°23' W 135°58'713.3
2019-Sep-20 02:31N 58°29' W 136°03'918.7
2019-Sep-20 02:00N 58°38' W 136°07'815.5
2019-Sep-20 01:30N 58°44' W 136°16'713.1
2019-Sep-20 01:00N 58°48' W 136°26'917.0
2019-Sep-20 00:30N 58°53' W 136°41'3 0.6
2019-Sep-19 19:24N 58°52' W 136°35'716.4
2019-Sep-19 19:00N 58°48' W 136°24'512.8 190 / 51010.510.8 11.0
2019-Sep-19 18:36N 58°45' W 136°17'213.7
2019-Sep-19 18:29N 58°43' W 136°15'816.1
2019-Sep-19 18:00N 58°37' W 136°06'917.5
2019-Sep-19 17:30N 58°29' W 136°03'612.8
2019-Sep-19 17:00N 58°23' W 135°57'815.9
2019-Sep-19 16:30N 58°18' W 135°45'1019.4
2019-Sep-19 16:00N 58°14' W 135°28'70 7.8
2019-Sep-19 07:00N 59°24' W 135°18'55 2.5 210 / 281005.5 0.5 13.2 10.6
2019-Sep-18 09:00N 58°30' W 134°54'2412.0 130 / 121012.510.8 12.0
2019-Sep-18 07:00N 58°12' W 134°24'6 2.0 090 / 61014.5 0.3 10.3 10.0
2019-Sep-18 04:00N 58°18' W 134°24'6 6.0 090 / 21012.5 2.2 12.2 10.9
2019-Sep-18 03:00N 58°12' W 134°24'6 6.0 360 / 21009.1
2019-Sep-18 02:00N 58°18' W 134°24'0 0.0 070 / 21008.310.8 16.0
2019-Sep-18 01:00N 58°18' W 134°24'0 0.0 170 / 41008.010.8 17.6
2019-Sep-18 00:00N 58°18' W 134°24'16211.6 080 / 21007.310.8 17.7
2019-Sep-17 10:00N 55°36' W 134°18'1919.2 070 / 34997.510.8 13.0
2019-Sep-17 09:00N 55°18' W 134°06'1615.8 090 / 28996.510.8 13.0
2019-Sep-17 08:00N 55°06' W 133°48'3316.5 110 / 18995.510.8 12.0
2019-Sep-17 06:00N 54°48' W 133°00'3919.7 100 / 31997.5 0.5 12.1 12.7
2019-Sep-17 04:00N 54°24' W 132°06'1819.4 120 / 32998.5 0.5 12.5 12.4
2019-Sep-17 03:03N 54°23' W 131°35'472.6
2019-Sep-17 03:00N 54°24' W 131°42'1429.4 120 / 28999.5 0.5 12.6 12.0
2019-Sep-17 02:31N 54°21' W 131°19'017.1
2019-Sep-17 02:30N 54°20' W 131°18'918.5
2019-Sep-17 02:00N 54°18' W 131°04'918.4
2019-Sep-17 01:30N 54°09' W 131°02'918.5
2019-Sep-17 01:00N 53°59' W 131°02'5331.3
2019-Sep-17 01:00N 53°54' W 131°00'4 8.0 140 / 35998.7 5.4 12.9
2019-Sep-17 00:30N 53°50' W 130°58'918.1
2019-Sep-17 00:00N 53°42' W 130°54'6375.4
2019-Sep-17 00:00N 53°36' W 130°54'4 8.3 130 / 34999.1 5.4 12.8
2019-Sep-16 23:31N 53°33' W 130°50'1020.0
2019-Sep-16 23:00N 53°23' W 130°44'1321.2
2019-Sep-16 22:23N 53°11' W 130°35'6921.3
2019-Sep-16 19:09N 52°08' W 129°48'321.4
2019-Sep-16 19:00N 52°06' W 129°46'1020.9
2019-Sep-16 18:30N 51°56' W 129°39'1121.6
2019-Sep-16 18:00N 51°47' W 129°31'5292.3
2019-Sep-16 18:00N 51°42' W 129°30'714.5 160 / 171009.510.8 14.0
2019-Sep-16 17:31N 51°39' W 129°20'1121.6
2019-Sep-16 17:00N 51°33' W 129°05'1121.4
2019-Sep-16 16:30N 51°27' W 128°52'1020.8
2019-Sep-16 16:01N 51°21' W 128°38'1121.0
2019-Sep-16 15:30N 51°15' W 128°24'1121.4
2019-Sep-16 15:01N 51°09' W 128°10'4223.0
2019-Sep-16 15:00N 51°06' W 128°06'714.7 120 / 141008.810.8 10.6
2019-Sep-16 14:30N 51°03' W 127°56'815.9
2019-Sep-16 14:00N 50°58' W 127°46'1020.3
2019-Sep-16 13:30N 50°52' W 127°33'1821.8
2019-Sep-16 12:40N 50°44' W 127°07'421.6
2019-Sep-16 12:30N 50°43' W 127°01'2718.0
2019-Sep-16 11:00N 50°30' W 126°24'3817.5 260 / 51009.5 2.2 9.0
2019-Sep-16 08:51N 50°20' W 125°27'515.4
2019-Sep-16 08:30N 50°15' W 125°23'816.5
2019-Sep-16 08:00N 50°08' W 125°21'713.2
2019-Sep-16 07:30N 50°03' W 125°14'814.9
2019-Sep-16 07:00N 49°56' W 125°08'815.1
2019-Sep-16 06:30N 49°51' W 124°59'714.6
2019-Sep-16 06:00N 49°46' W 124°51'5325.5
2019-Sep-16 06:00N 49°42' W 124°48'3 6.9 300 / 151010.5 1.1 12.5 14.1
2019-Sep-16 05:30N 49°41' W 124°43'714.7
2019-Sep-16 05:00N 49°35' W 124°36'139.9
2019-Sep-16 05:00N 49°36' W 124°36'816.2 290 / 121010.5 1.1 12.8 13.5
2019-Sep-16 04:30N 49°29' W 124°29'814.9
2019-Sep-16 04:00N 49°25' W 124°19'2188.0
2019-Sep-16 04:00N 49°24' W 124°18'613.0 110 / 121009.5 1.1 13.9 14.7
2019-Sep-16 03:30N 49°23' W 124°08'815.5
2019-Sep-16 03:00N 49°22' W 123°57'5381.6
2019-Sep-16 03:00N 49°18' W 123°54'714.0 100 / 141009.5 1.1 14.0 12.9
2019-Sep-16 02:30N 49°21' W 123°45'816.2
2019-Sep-16 02:00N 49°20' W 123°32'815.7
2019-Sep-16 01:30N 49°19' W 123°20'714.9
2019-Sep-16 01:00N 49°19' W 123°09'2 4.4
2019-Sep-16 00:30N 49°17' W 123°07'0 0.0
2019-Sep-15 23:57N 49°17' W 123°07'0 0.0
2019-Sep-15 23:30N 49°17' W 123°07'0 0.0
2019-Sep-15 23:00N 49°17' W 123°07'0 0.0
2019-Sep-15 22:30N 49°17' W 123°07'0 0.0
2019-Sep-15 22:00N 49°17' W 123°07'0 0.0
2019-Sep-15 21:30N 49°17' W 123°07'0 0.0
2019-Sep-15 21:00N 49°17' W 123°07'0 0.0
2019-Sep-15 20:30N 49°17' W 123°07'0 0.0
2019-Sep-15 20:00N 49°17' W 123°07'0 0.0
2019-Sep-15 19:30N 49°17' W 123°07'0 0.0
2019-Sep-15 19:00N 49°17' W 123°07'5970.8
2019-Sep-15 19:00N 49°12' W 123°06'5 9.9 110 / 41006.310.8 15.0
2019-Sep-15 18:27N 49°17' W 123°07'0 0.0
2019-Sep-15 18:00N 49°17' W 123°07'51021.9
2019-Sep-15 18:00N 49°12' W 123°06'510.9 110 / 51006.310.8 15.0
2019-Sep-15 17:30N 49°17' W 123°07'0 0.0
2019-Sep-15 17:00N 49°17' W 123°07'0 0.0
2019-Sep-15 16:30N 49°17' W 123°07'0 0.0
2019-Sep-15 16:00N 49°17' W 123°07'0 0.0
2019-Sep-15 15:30N 49°17' W 123°07'0 0.0
2019-Sep-15 15:00N 49°17' W 123°07'0 0.0
2019-Sep-15 14:30N 49°17' W 123°07'0 0.1
2019-Sep-15 14:00N 49°17' W 123°07'1 2.5
2019-Sep-15 13:30N 49°19' W 123°08'713.4
2019-Sep-15 13:00N 49°18' W 123°18'1020.8
2019-Sep-15 12:30N 49°18' W 123°34'1020.7
2019-Sep-15 12:00N 49°20' W 123°49'1020.8
2019-Sep-15 11:30N 49°22' W 124°05'1020.8
2019-Sep-15 11:00N 49°26' W 124°20'2135.6
2019-Sep-15 11:00N 49°24' W 124°18'1225.1 100 / 151005.3 2.2 13.0
2019-Sep-15 10:31N 49°32' W 124°32'1020.8
2019-Sep-15 10:00N 49°40' W 124°43'4224.7
2019-Sep-15 10:00N 49°36' W 124°42'1428.8 170 / 171005.310.8 13.0
2019-Sep-15 09:30N 49°48' W 124°54'1121.1
2019-Sep-15 09:00N 49°55' W 125°06'170.9
2019-Sep-15 09:00N 49°54' W 125°06'1021.1 180 / 61005.310.8 12.0
2019-Sep-15 08:30N 50°03' W 125°14'714.4
2019-Sep-15 08:00N 50°08' W 125°21'3212.3
2019-Sep-15 08:00N 50°06' W 125°18'917.8 190 / 71007.3 5.4 13.0 11.0
2019-Sep-15 07:30N 50°14' W 125°23'510.1
2019-Sep-15 07:00N 50°19' W 125°25'1110.8
2019-Sep-15 06:00N 50°18' W 125°42'535.5 040 / 31004.910.8 12.6
2019-Sep-15 05:51N 50°22' W 125°47'2010.8
2019-Sep-15 04:00N 50°24' W 126°18'3612.1 140 / 51005.110.8 13.0
2019-Sep-15 01:00N 50°36' W 127°12'1429.7 080 / 111005.1 5.4 13.3
2019-Sep-15 00:31N 50°48' W 127°24'517.6
2019-Sep-15 00:15N 50°51' W 127°30'417.9
2019-Sep-15 00:00N 50°53' W 127°36'917.7
2019-Sep-14 23:30N 50°59' W 127°47'917.4
2019-Sep-14 23:00N 51°07' W 127°51'816.6
2019-Sep-14 22:30N 51°15' W 127°53'816.9
2019-Sep-14 22:00N 51°24' W 127°51'2143.2
2019-Sep-14 22:00N 51°24' W 127°48'918.7 190 / 171006.3 2.2 14.3 13.0
2019-Sep-14 21:30N 51°33' W 127°52'918.0
2019-Sep-14 21:00N 51°41' W 127°56'188.0
2019-Sep-14 21:00N 51°42' W 127°54'817.2 180 / 121007.3 1.1 13.0 15.0
2019-Sep-14 20:31N 51°50' W 127°57'917.4
2019-Sep-14 20:00N 51°59' W 127°56'5359.5
2019-Sep-14 20:00N 51°54' W 127°54'1327.6 200 / 161006.010.8 14.4 13.5
2019-Sep-14 19:30N 52°07' W 127°53'5 9.1
2019-Sep-14 19:00N 52°12' W 127°54'730.6 170 / 101008.310.8 15.0
2019-Sep-14 18:47N 52°18' W 127°57'415.9
2019-Sep-14 18:30N 52°18' W 128°04'816.0
2019-Sep-14 18:00N 52°15' W 128°16'918.0
2019-Sep-14 17:30N 52°16' W 128°30'917.7
2019-Sep-14 17:00N 52°14' W 128°45'2158.1
2019-Sep-14 17:00N 52°12' W 128°42'1021.1 170 / 251006.310.8 14.0
2019-Sep-14 16:30N 52°15' W 128°58'917.0
2019-Sep-14 16:00N 52°17' W 129°11'917.2
2019-Sep-14 15:30N 52°19' W 129°25'815.9
2019-Sep-14 15:00N 52°24' W 129°36'521.6 210 / 211005.610.8 13.9
2019-Sep-14 14:45N 52°26' W 129°44'1215.7
2019-Sep-14 14:00N 52°36' W 129°54'1616.2 220 / 181005.410.8 13.7
2019-Sep-14 13:00N 52°48' W 130°12'3221.4 260 / 81005.410.8 13.2
2019-Sep-14 11:30N 53°16' W 130°38'816.7
2019-Sep-14 11:00N 53°24' W 130°42'333.3 220 / 121006.310.8 13.0
2019-Sep-14 10:54N 53°26' W 130°46'718.0
2019-Sep-14 10:30N 53°33' W 130°50'918.4
2019-Sep-14 10:00N 53°42' W 130°54'029.5
2019-Sep-14 10:00N 53°42' W 130°54'817.4 270 / 101005.310.8 13.0
2019-Sep-14 09:31N 53°50' W 130°58'917.5
2019-Sep-14 09:01N 53°58' W 131°03'5274.8
2019-Sep-14 09:00N 53°54' W 131°00'1327.6 260 / 151004.310.8 13.0
2019-Sep-14 08:30N 54°07' W 131°02'917.9
2019-Sep-14 08:00N 54°16' W 131°00'510.7
2019-Sep-14 07:30N 54°21' W 130°60'918.9
2019-Sep-14 07:00N 54°29' W 131°10'1116.9
2019-Sep-14 06:22N 54°39' W 131°15'615.7
2019-Sep-14 06:00N 54°42' W 131°06'5161.9 250 / 161003.410.8 12.6
2019-Sep-14 05:58N 54°46' W 131°11'817.0
2019-Sep-14 05:30N 54°53' W 131°07'713.1
2019-Sep-14 05:00N 55°00' W 131°06'537.9 220 / 51003.310.8 13.2
2019-Sep-14 04:51N 55°05' W 131°08'21 4.2
2019-Sep-14 00:00N 55°18' W 131°36'0 0.0 170 / 31004.6 2.2 13.2
2019-Sep-13 19:00N 55°18' W 131°36'5611.2 150 / 101006.0 5.4 13.0
2019-Sep-13 14:00N 56°00' W 132°42'3014.8 140 / 301004.310.8 13.0 13.0
2019-Sep-13 12:00N 56°18' W 133°24'3618.0 120 / 151006.3 5.4 12.0 11.0
2019-Sep-13 10:00N 55°54' W 134°12'1818.3 170 / 171007.3 5.4 13.0 11.0
2019-Sep-13 09:00N 56°12' W 134°18'4221.1 160 / 311006.3 5.4 12.0
2019-Sep-13 07:00N 56°54' W 134°24'2222.2 270 / 71004.2 5.4 12.7
2019-Sep-13 06:00N 57°12' W 134°00'3718.3 130 / 261005.610.8 11.9
2019-Sep-13 04:00N 57°48' W 133°48'36 4.4 150 / 141006.710.8 11.8
2019-Sep-12 20:00N 58°18' W 134°24'0 0.0 140 / 91009.3 5.4 11.0
2019-Sep-12 19:00N 58°18' W 134°24'0 0.0 150 / 91009.3 5.4 11.0
2019-Sep-12 18:00N 58°18' W 134°24'0 0.0 140 / 101010.3 5.4 11.0
2019-Sep-12 15:00N 58°18' W 134°24'6 2.0 1009.310.8 11.1
2019-Sep-12 12:00N 58°12' W 134°24'1111.2 110 / 121012.310.8 12.0
2019-Sep-12 11:00N 58°18' W 134°42'9 8.7 160 / 51012.310.8 12.0
2019-Sep-12 10:00N 58°24' W 134°54'7 6.8 020 / 141012.310.8 11.0
2019-Sep-12 09:00N 58°30' W 135°00'2512.4 300 / 111012.310.8 11.0
2019-Sep-12 07:00N 58°54' W 135°12'6 6.0 020 / 21011.010.8 11.0
2019-Sep-12 06:00N 59°00' W 135°12'13 4.5 060 / 71011.310.8 10.7
2019-Sep-12 03:00N 59°12' W 135°24'0 0.0 260 / 61012.310.8 12.4
2019-Sep-12 01:00N 59°12' W 135°24'0 0.0 080 / 31012.8 5.4 13.9
2019-Sep-11 23:00N 59°12' W 135°24'0 0.0 070 / 71013.510.8 13.5
2019-Sep-11 20:00N 59°12' W 135°24'0 0.0 260 / 31015.310.8 11.0
2019-Sep-11 15:00N 59°12' W 135°24'19 6.3 320 / 21013.810.8 8.2
2019-Sep-11 12:00N 58°54' W 135°12'   360 / 111013.310.8 10.0

Dump ship's entire track history